sensor_id;sensor_type;location;lat;lon;timestamp;P1;durP1;ratioP1;P2;durP2;ratioP2
51292;SDS011;37377;45.186;9.778;2023-06-04T00:01:09;19.35;;;17.52;;
51292;SDS011;37377;45.186;9.778;2023-06-04T00:03:55;23.10;;;19.35;;
51292;SDS011;37377;45.186;9.778;2023-06-04T00:06:50;23.25;;;19.63;;
51292;SDS011;37377;45.186;9.778;2023-06-04T00:09:29;23.55;;;19.80;;
51292;SDS011;37377;45.186;9.778;2023-06-04T00:12:02;22.02;;;19.80;;
51292;SDS011;37377;45.186;9.778;2023-06-04T00:14:38;24.73;;;20.07;;
51292;SDS011;37377;45.186;9.778;2023-06-04T00:17:12;22.30;;;20.05;;
51292;SDS011;37377;45.186;9.778;2023-06-04T00:19:53;23.75;;;21.27;;
51292;SDS011;37377;45.186;9.778;2023-06-04T00:22:58;26.42;;;20.83;;
51292;SDS011;37377;45.186;9.778;2023-06-04T00:26:30;25.20;;;21.00;;
51292;SDS011;37377;45.186;9.778;2023-06-04T00:29:34;23.90;;;20.65;;
51292;SDS011;37377;45.186;9.778;2023-06-04T00:32:17;22.67;;;20.33;;
51292;SDS011;37377;45.186;9.778;2023-06-04T00:35:21;27.48;;;20.63;;
51292;SDS011;37377;45.186;9.778;2023-06-04T00:38:39;31.98;;;21.80;;
51292;SDS011;37377;45.186;9.778;2023-06-04T00:42:01;23.42;;;20.25;;
51292;SDS011;37377;45.186;9.778;2023-06-04T00:45:15;30.50;;;20.50;;
51292;SDS011;37377;45.186;9.778;2023-06-04T00:47:46;22.77;;;20.38;;
51292;SDS011;37377;45.186;9.778;2023-06-04T00:50:53;25.05;;;20.50;;
51292;SDS011;37377;45.186;9.778;2023-06-04T00:56:41;23.48;;;20.88;;
51292;SDS011;37377;45.186;9.778;2023-06-04T00:59:23;22.30;;;20.13;;
51292;SDS011;37377;45.186;9.778;2023-06-04T01:02:31;24.15;;;20.88;;
51292;SDS011;37377;45.186;9.778;2023-06-04T01:05:17;24.40;;;21.05;;
51292;SDS011;37377;45.186;9.778;2023-06-04T01:07:46;23.50;;;20.48;;
51292;SDS011;37377;45.186;9.778;2023-06-04T01:10:31;24.20;;;21.50;;
51292;SDS011;37377;45.186;9.778;2023-06-04T01:13:08;28.65;;;21.42;;
51292;SDS011;37377;45.186;9.778;2023-06-04T01:20:38;30.10;;;22.63;;
51292;SDS011;37377;45.186;9.778;2023-06-04T01:27:27;28.27;;;23.80;;
51292;SDS011;37377;45.186;9.778;2023-06-04T01:29:54;28.55;;;24.92;;
51292;SDS011;37377;45.186;9.778;2023-06-04T01:32:28;29.35;;;25.63;;
51292;SDS011;37377;45.186;9.778;2023-06-04T01:35:10;28.52;;;25.52;;
51292;SDS011;37377;45.186;9.778;2023-06-04T01:37:38;33.95;;;26.52;;
51292;SDS011;37377;45.186;9.778;2023-06-04T01:40:05;31.50;;;26.35;;
51292;SDS011;37377;45.186;9.778;2023-06-04T01:42:38;40.47;;;29.20;;
51292;SDS011;37377;45.186;9.778;2023-06-04T01:45:13;31.85;;;28.58;;
51292;SDS011;37377;45.186;9.778;2023-06-04T01:47:48;32.70;;;26.90;;
51292;SDS011;37377;45.186;9.778;2023-06-04T01:50:40;31.50;;;28.17;;
51292;SDS011;37377;45.186;9.778;2023-06-04T01:53:09;31.60;;;27.25;;
51292;SDS011;37377;45.186;9.778;2023-06-04T01:55:36;29.95;;;27.02;;
51292;SDS011;37377;45.186;9.778;2023-06-04T01:58:30;36.15;;;28.35;;
51292;SDS011;37377;45.186;9.778;2023-06-04T02:01:04;36.13;;;28.05;;
51292;SDS011;37377;45.186;9.778;2023-06-04T02:03:35;35.78;;;29.65;;
51292;SDS011;37377;45.186;9.778;2023-06-04T02:06:05;34.23;;;29.40;;
51292;SDS011;37377;45.186;9.778;2023-06-04T02:08:38;33.50;;;27.37;;
51292;SDS011;37377;45.186;9.778;2023-06-04T02:11:15;32.40;;;26.95;;
51292;SDS011;37377;45.186;9.778;2023-06-04T02:13:54;31.35;;;26.33;;
51292;SDS011;37377;45.186;9.778;2023-06-04T02:16:35;29.77;;;26.65;;
51292;SDS011;37377;45.186;9.778;2023-06-04T02:19:06;29.55;;;26.25;;
51292;SDS011;37377;45.186;9.778;2023-06-04T02:21:49;33.35;;;26.10;;
51292;SDS011;37377;45.186;9.778;2023-06-04T02:24:19;31.88;;;26.38;;
51292;SDS011;37377;45.186;9.778;2023-06-04T02:26:56;33.03;;;27.92;;
51292;SDS011;37377;45.186;9.778;2023-06-04T02:29:32;30.02;;;26.50;;
51292;SDS011;37377;45.186;9.778;2023-06-04T02:32:01;30.88;;;27.67;;
51292;SDS011;37377;45.186;9.778;2023-06-04T02:34:41;35.80;;;27.95;;
51292;SDS011;37377;45.186;9.778;2023-06-04T02:37:12;42.92;;;27.85;;
51292;SDS011;37377;45.186;9.778;2023-06-04T02:39:45;32.47;;;27.70;;
51292;SDS011;37377;45.186;9.778;2023-06-04T02:42:29;35.92;;;26.77;;
51292;SDS011;37377;45.186;9.778;2023-06-04T02:45:07;30.38;;;27.25;;
51292;SDS011;37377;45.186;9.778;2023-06-04T02:47:34;30.50;;;27.38;;
51292;SDS011;37377;45.186;9.778;2023-06-04T02:50:08;29.08;;;26.02;;
51292;SDS011;37377;45.186;9.778;2023-06-04T02:52:40;30.45;;;27.33;;
51292;SDS011;37377;45.186;9.778;2023-06-04T02:55:16;35.25;;;27.00;;
51292;SDS011;37377;45.186;9.778;2023-06-04T02:57:43;33.33;;;28.85;;
51292;SDS011;37377;45.186;9.778;2023-06-04T03:00:19;34.97;;;29.67;;
51292;SDS011;37377;45.186;9.778;2023-06-04T03:02:51;34.33;;;30.77;;
51292;SDS011;37377;45.186;9.778;2023-06-04T03:05:24;36.58;;;31.25;;
51292;SDS011;37377;45.186;9.778;2023-06-04T03:07:53;33.20;;;29.85;;
51292;SDS011;37377;45.186;9.778;2023-06-04T03:10:48;31.80;;;28.10;;
51292;SDS011;37377;45.186;9.778;2023-06-04T03:13:51;36.35;;;28.38;;
51292;SDS011;37377;45.186;9.778;2023-06-04T03:16:48;33.83;;;30.35;;
51292;SDS011;37377;45.186;9.778;2023-06-04T03:19:23;35.72;;;31.65;;
51292;SDS011;37377;45.186;9.778;2023-06-04T03:22:21;37.50;;;33.35;;
51292;SDS011;37377;45.186;9.778;2023-06-04T03:24:55;39.03;;;34.83;;
51292;SDS011;37377;45.186;9.778;2023-06-04T03:27:22;38.40;;;33.63;;
51292;SDS011;37377;45.186;9.778;2023-06-04T03:29:49;39.10;;;34.80;;
51292;SDS011;37377;45.186;9.778;2023-06-04T03:32:31;38.95;;;34.75;;
51292;SDS011;37377;45.186;9.778;2023-06-04T03:35:02;37.00;;;32.78;;
51292;SDS011;37377;45.186;9.778;2023-06-04T03:37:31;42.47;;;34.72;;
51292;SDS011;37377;45.186;9.778;2023-06-04T03:40:00;39.38;;;34.80;;
51292;SDS011;37377;45.186;9.778;2023-06-04T03:42:29;41.30;;;37.15;;
51292;SDS011;37377;45.186;9.778;2023-06-04T03:45:00;49.50;;;43.90;;
51292;SDS011;37377;45.186;9.778;2023-06-04T03:47:29;48.25;;;37.30;;
51292;SDS011;37377;45.186;9.778;2023-06-04T03:49:57;45.72;;;38.63;;
51292;SDS011;37377;45.186;9.778;2023-06-04T03:52:31;42.97;;;38.55;;
51292;SDS011;37377;45.186;9.778;2023-06-04T03:55:05;42.30;;;37.70;;
51292;SDS011;37377;45.186;9.778;2023-06-04T03:57:34;42.53;;;38.17;;
51292;SDS011;37377;45.186;9.778;2023-06-04T04:00:02;42.30;;;37.13;;
51292;SDS011;37377;45.186;9.778;2023-06-04T04:02:39;44.80;;;40.15;;
51292;SDS011;37377;45.186;9.778;2023-06-04T04:05:10;44.53;;;39.88;;
51292;SDS011;37377;45.186;9.778;2023-06-04T04:07:41;43.63;;;39.00;;
51292;SDS011;37377;45.186;9.778;2023-06-04T04:10:08;42.55;;;38.08;;
51292;SDS011;37377;45.186;9.778;2023-06-04T04:12:36;44.25;;;39.30;;
51292;SDS011;37377;45.186;9.778;2023-06-04T04:15:04;43.15;;;38.55;;
51292;SDS011;37377;45.186;9.778;2023-06-04T04:17:32;44.35;;;38.08;;
51292;SDS011;37377;45.186;9.778;2023-06-04T04:19:59;40.72;;;36.42;;
51292;SDS011;37377;45.186;9.778;2023-06-04T04:22:30;41.60;;;36.05;;
51292;SDS011;37377;45.186;9.778;2023-06-04T04:24:58;41.85;;;37.58;;
51292;SDS011;37377;45.186;9.778;2023-06-04T04:27:25;40.35;;;35.65;;
51292;SDS011;37377;45.186;9.778;2023-06-04T04:29:55;45.78;;;40.67;;
51292;SDS011;37377;45.186;9.778;2023-06-04T04:32:29;38.63;;;34.38;;
51292;SDS011;37377;45.186;9.778;2023-06-04T04:34:58;36.65;;;32.45;;
51292;SDS011;37377;45.186;9.778;2023-06-04T04:37:34;40.05;;;35.85;;
51292;SDS011;37377;45.186;9.778;2023-06-04T04:40:33;35.10;;;31.35;;
51292;SDS011;37377;45.186;9.778;2023-06-04T04:43:03;34.05;;;30.67;;
51292;SDS011;37377;45.186;9.778;2023-06-04T04:45:31;34.83;;;31.13;;
51292;SDS011;37377;45.186;9.778;2023-06-04T04:48:06;42.53;;;31.42;;
51292;SDS011;37377;45.186;9.778;2023-06-04T04:50:37;34.22;;;30.85;;
51292;SDS011;37377;45.186;9.778;2023-06-04T04:53:10;33.67;;;30.00;;
51292;SDS011;37377;45.186;9.778;2023-06-04T04:55:41;33.72;;;30.23;;
51292;SDS011;37377;45.186;9.778;2023-06-04T04:58:08;34.17;;;30.67;;
51292;SDS011;37377;45.186;9.778;2023-06-04T05:00:36;33.42;;;30.20;;
51292;SDS011;37377;45.186;9.778;2023-06-04T05:03:07;31.20;;;27.95;;
51292;SDS011;37377;45.186;9.778;2023-06-04T05:10:11;25.60;;;23.25;;
51292;SDS011;37377;45.186;9.778;2023-06-04T05:21:42;27.67;;;20.90;;
51292;SDS011;37377;45.186;9.778;2023-06-04T05:24:20;25.38;;;20.92;;
51292;SDS011;37377;45.186;9.778;2023-06-04T05:26:47;24.77;;;20.25;;
51292;SDS011;37377;45.186;9.778;2023-06-04T05:29:18;22.67;;;20.55;;
51292;SDS011;37377;45.186;9.778;2023-06-04T05:32:11;22.90;;;20.57;;
51292;SDS011;37377;45.186;9.778;2023-06-04T05:34:54;22.38;;;20.20;;
51292;SDS011;37377;45.186;9.778;2023-06-04T05:37:54;24.55;;;22.08;;
51292;SDS011;37377;45.186;9.778;2023-06-04T05:41:58;23.10;;;20.70;;
51292;SDS011;37377;45.186;9.778;2023-06-04T05:45:09;22.33;;;20.02;;
51292;SDS011;37377;45.186;9.778;2023-06-04T05:48:04;19.88;;;18.00;;
51292;SDS011;37377;45.186;9.778;2023-06-04T05:50:32;21.00;;;18.05;;
51292;SDS011;37377;45.186;9.778;2023-06-04T05:52:58;19.90;;;16.67;;
51292;SDS011;37377;45.186;9.778;2023-06-04T05:55:25;19.83;;;17.20;;
51292;SDS011;37377;45.186;9.778;2023-06-04T05:57:52;18.58;;;16.88;;
51292;SDS011;37377;45.186;9.778;2023-06-04T06:00:28;20.02;;;17.38;;
51292;SDS011;37377;45.186;9.778;2023-06-04T06:03:01;18.90;;;16.98;;
51292;SDS011;37377;45.186;9.778;2023-06-04T06:05:37;20.23;;;18.25;;
51292;SDS011;37377;45.186;9.778;2023-06-04T06:08:03;18.13;;;16.45;;
51292;SDS011;37377;45.186;9.778;2023-06-04T06:10:31;16.77;;;15.23;;
51292;SDS011;37377;45.186;9.778;2023-06-04T06:12:57;16.02;;;14.40;;
51292;SDS011;37377;45.186;9.778;2023-06-04T06:15:43;16.23;;;14.25;;
51292;SDS011;37377;45.186;9.778;2023-06-04T06:18:34;14.80;;;13.50;;
51292;SDS011;37377;45.186;9.778;2023-06-04T06:21:09;13.85;;;12.65;;
51292;SDS011;37377;45.186;9.778;2023-06-04T06:23:38;16.15;;;13.07;;
51292;SDS011;37377;45.186;9.778;2023-06-04T06:26:08;13.10;;;11.85;;
51292;SDS011;37377;45.186;9.778;2023-06-04T06:34:17;13.15;;;12.15;;
51292;SDS011;37377;45.186;9.778;2023-06-04T06:37:09;15.75;;;11.50;;
51292;SDS011;37377;45.186;9.778;2023-06-04T06:39:57;15.20;;;11.13;;
51292;SDS011;37377;45.186;9.778;2023-06-04T06:43:16;12.52;;;10.55;;
51292;SDS011;37377;45.186;9.778;2023-06-04T06:46:17;13.30;;;10.10;;
51292;SDS011;37377;45.186;9.778;2023-06-04T06:48:51;10.52;;;9.63;;
51292;SDS011;37377;45.186;9.778;2023-06-04T07:01:06;10.93;;;9.85;;
51292;SDS011;37377;45.186;9.778;2023-06-04T07:03:33;11.07;;;9.60;;
51292;SDS011;37377;45.186;9.778;2023-06-04T07:06:00;11.55;;;9.50;;
51292;SDS011;37377;45.186;9.778;2023-06-04T07:08:27;11.98;;;9.50;;
51292;SDS011;37377;45.186;9.778;2023-06-04T07:11:04;10.38;;;9.52;;
51292;SDS011;37377;45.186;9.778;2023-06-04T07:15:10;10.77;;;9.80;;
51292;SDS011;37377;45.186;9.778;2023-06-04T07:17:37;12.38;;;11.27;;
51292;SDS011;37377;45.186;9.778;2023-06-04T07:24:40;11.27;;;10.13;;
51292;SDS011;37377;45.186;9.778;2023-06-04T07:27:13;11.93;;;10.45;;
51292;SDS011;37377;45.186;9.778;2023-06-04T07:29:43;10.13;;;9.00;;
51292;SDS011;37377;45.186;9.778;2023-06-04T07:32:14;10.65;;;9.70;;
51292;SDS011;37377;45.186;9.778;2023-06-04T07:34:44;11.85;;;9.18;;
51292;SDS011;37377;45.186;9.778;2023-06-04T07:44:10;12.88;;;9.00;;
51292;SDS011;37377;45.186;9.778;2023-06-04T07:47:09;11.77;;;9.75;;
51292;SDS011;37377;45.186;9.778;2023-06-04T07:49:41;10.35;;;9.55;;
51292;SDS011;37377;45.186;9.778;2023-06-04T07:52:27;11.45;;;9.10;;
51292;SDS011;37377;45.186;9.778;2023-06-04T07:54:57;10.15;;;9.20;;
51292;SDS011;37377;45.186;9.778;2023-06-04T07:57:24;12.43;;;8.40;;
51292;SDS011;37377;45.186;9.778;2023-06-04T07:59:51;10.13;;;8.63;;
51292;SDS011;37377;45.186;9.778;2023-06-04T08:02:18;14.05;;;8.95;;
51292;SDS011;37377;45.186;9.778;2023-06-04T08:04:45;9.93;;;8.93;;
51292;SDS011;37377;45.186;9.778;2023-06-04T08:07:15;9.52;;;8.52;;
51292;SDS011;37377;45.186;9.778;2023-06-04T08:09:42;11.35;;;8.63;;
51292;SDS011;37377;45.186;9.778;2023-06-04T08:12:10;12.43;;;8.50;;
51292;SDS011;37377;45.186;9.778;2023-06-04T08:14:37;9.27;;;8.38;;
51292;SDS011;37377;45.186;9.778;2023-06-04T08:17:04;13.13;;;9.70;;
51292;SDS011;37377;45.186;9.778;2023-06-04T08:19:38;13.85;;;9.27;;
51292;SDS011;37377;45.186;9.778;2023-06-04T08:22:07;13.98;;;9.60;;
51292;SDS011;37377;45.186;9.778;2023-06-04T08:24:48;11.30;;;10.20;;
51292;SDS011;37377;45.186;9.778;2023-06-04T08:27:36;10.52;;;9.63;;
51292;SDS011;37377;45.186;9.778;2023-06-04T08:30:15;10.63;;;9.55;;
51292;SDS011;37377;45.186;9.778;2023-06-04T08:33:07;10.57;;;9.68;;
51292;SDS011;37377;45.186;9.778;2023-06-04T08:35:45;10.32;;;9.50;;
51292;SDS011;37377;45.186;9.778;2023-06-04T08:38:12;11.63;;;10.30;;
51292;SDS011;37377;45.186;9.778;2023-06-04T08:40:39;10.93;;;9.82;;
51292;SDS011;37377;45.186;9.778;2023-06-04T08:43:05;10.50;;;9.63;;
51292;SDS011;37377;45.186;9.778;2023-06-04T08:45:33;11.65;;;9.13;;
51292;SDS011;37377;45.186;9.778;2023-06-04T08:48:05;14.13;;;10.20;;
51292;SDS011;37377;45.186;9.778;2023-06-04T08:50:42;12.05;;;10.30;;
51292;SDS011;37377;45.186;9.778;2023-06-04T08:53:11;11.02;;;10.00;;
51292;SDS011;37377;45.186;9.778;2023-06-04T08:55:40;11.52;;;10.43;;
51292;SDS011;37377;45.186;9.778;2023-06-04T08:58:07;12.10;;;10.60;;
51292;SDS011;37377;45.186;9.778;2023-06-04T09:00:36;10.35;;;9.45;;
51292;SDS011;37377;45.186;9.778;2023-06-04T09:03:03;10.38;;;9.38;;
51292;SDS011;37377;45.186;9.778;2023-06-04T09:05:30;10.38;;;9.30;;
51292;SDS011;37377;45.186;9.778;2023-06-04T09:07:59;11.50;;;9.98;;
51292;SDS011;37377;45.186;9.778;2023-06-04T09:10:27;12.90;;;9.20;;
51292;SDS011;37377;45.186;9.778;2023-06-04T09:12:56;10.55;;;9.02;;
51292;SDS011;37377;45.186;9.778;2023-06-04T09:15:23;16.23;;;9.43;;
51292;SDS011;37377;45.186;9.778;2023-06-04T09:17:51;11.00;;;9.13;;
51292;SDS011;37377;45.186;9.778;2023-06-04T09:20:18;10.50;;;9.40;;
51292;SDS011;37377;45.186;9.778;2023-06-04T09:22:46;11.45;;;9.40;;
51292;SDS011;37377;45.186;9.778;2023-06-04T09:25:20;21.05;;;9.25;;
51292;SDS011;37377;45.186;9.778;2023-06-04T09:27:46;10.25;;;9.30;;
51292;SDS011;37377;45.186;9.778;2023-06-04T09:30:13;11.65;;;10.38;;
51292;SDS011;37377;45.186;9.778;2023-06-04T09:32:40;12.40;;;10.80;;
51292;SDS011;37377;45.186;9.778;2023-06-04T09:35:11;12.18;;;10.57;;
51292;SDS011;37377;45.186;9.778;2023-06-04T09:37:42;11.97;;;10.77;;
51292;SDS011;37377;45.186;9.778;2023-06-04T09:40:10;15.25;;;13.73;;
51292;SDS011;37377;45.186;9.778;2023-06-04T09:42:47;14.23;;;12.70;;
51292;SDS011;37377;45.186;9.778;2023-06-04T09:45:26;16.08;;;11.68;;
51292;SDS011;37377;45.186;9.778;2023-06-04T09:47:53;11.60;;;10.52;;
51292;SDS011;37377;45.186;9.778;2023-06-04T09:50:24;17.13;;;12.00;;
51292;SDS011;37377;45.186;9.778;2023-06-04T09:52:51;13.75;;;12.48;;
51292;SDS011;37377;45.186;9.778;2023-06-04T09:55:19;11.55;;;10.32;;
51292;SDS011;37377;45.186;9.778;2023-06-04T09:57:47;18.23;;;10.45;;
51292;SDS011;37377;45.186;9.778;2023-06-04T10:00:19;13.30;;;11.93;;
51292;SDS011;37377;45.186;9.778;2023-06-04T10:03:01;13.85;;;11.25;;
51292;SDS011;37377;45.186;9.778;2023-06-04T10:05:31;11.68;;;10.68;;
51292;SDS011;37377;45.186;9.778;2023-06-04T10:07:58;12.77;;;11.15;;
51292;SDS011;37377;45.186;9.778;2023-06-04T10:10:27;12.13;;;10.95;;
51292;SDS011;37377;45.186;9.778;2023-06-04T10:12:56;12.05;;;11.15;;
51292;SDS011;37377;45.186;9.778;2023-06-04T10:15:26;14.95;;;11.48;;
51292;SDS011;37377;45.186;9.778;2023-06-04T10:17:53;13.70;;;11.10;;
51292;SDS011;37377;45.186;9.778;2023-06-04T10:20:21;11.13;;;10.18;;
51292;SDS011;37377;45.186;9.778;2023-06-04T10:22:48;14.43;;;10.90;;
51292;SDS011;37377;45.186;9.778;2023-06-04T10:25:15;14.43;;;11.50;;
51292;SDS011;37377;45.186;9.778;2023-06-04T10:27:43;12.20;;;11.00;;
51292;SDS011;37377;45.186;9.778;2023-06-04T10:30:10;11.63;;;10.65;;
51292;SDS011;37377;45.186;9.778;2023-06-04T10:32:37;12.57;;;11.23;;
51292;SDS011;37377;45.186;9.778;2023-06-04T10:35:04;14.40;;;11.13;;
51292;SDS011;37377;45.186;9.778;2023-06-04T10:37:34;12.50;;;11.30;;
51292;SDS011;37377;45.186;9.778;2023-06-04T10:40:01;12.93;;;11.55;;
51292;SDS011;37377;45.186;9.778;2023-06-04T10:42:36;12.93;;;11.60;;
51292;SDS011;37377;45.186;9.778;2023-06-04T10:45:04;13.75;;;11.50;;
51292;SDS011;37377;45.186;9.778;2023-06-04T10:47:31;14.05;;;12.65;;
51292;SDS011;37377;45.186;9.778;2023-06-04T10:50:10;13.83;;;12.50;;
51292;SDS011;37377;45.186;9.778;2023-06-04T10:52:38;14.55;;;11.77;;
51292;SDS011;37377;45.186;9.778;2023-06-04T10:55:07;15.77;;;12.35;;
51292;SDS011;37377;45.186;9.778;2023-06-04T10:57:34;13.70;;;11.95;;
51292;SDS011;37377;45.186;9.778;2023-06-04T11:00:04;12.38;;;11.18;;
51292;SDS011;37377;45.186;9.778;2023-06-04T11:02:36;12.85;;;11.65;;
51292;SDS011;37377;45.186;9.778;2023-06-04T11:05:07;15.38;;;12.15;;
51292;SDS011;37377;45.186;9.778;2023-06-04T11:07:47;15.48;;;12.45;;
51292;SDS011;37377;45.186;9.778;2023-06-04T11:10:14;13.23;;;11.95;;
51292;SDS011;37377;45.186;9.778;2023-06-04T11:12:42;13.95;;;12.70;;
51292;SDS011;37377;45.186;9.778;2023-06-04T11:15:09;14.07;;;12.55;;
51292;SDS011;37377;45.186;9.778;2023-06-04T11:17:36;15.43;;;12.93;;
51292;SDS011;37377;45.186;9.778;2023-06-04T11:20:15;16.73;;;15.00;;
51292;SDS011;37377;45.186;9.778;2023-06-04T11:22:55;15.38;;;13.93;;
51292;SDS011;37377;45.186;9.778;2023-06-04T11:25:26;14.43;;;13.13;;
51292;SDS011;37377;45.186;9.778;2023-06-04T11:27:53;14.35;;;13.02;;
51292;SDS011;37377;45.186;9.778;2023-06-04T11:30:20;14.75;;;12.00;;
51292;SDS011;37377;45.186;9.778;2023-06-04T11:32:47;15.00;;;13.50;;
51292;SDS011;37377;45.186;9.778;2023-06-04T11:35:14;16.38;;;12.93;;
51292;SDS011;37377;45.186;9.778;2023-06-04T11:37:41;15.00;;;13.60;;
51292;SDS011;37377;45.186;9.778;2023-06-04T11:40:17;18.45;;;13.18;;
51292;SDS011;37377;45.186;9.778;2023-06-04T11:42:44;15.82;;;13.68;;
51292;SDS011;37377;45.186;9.778;2023-06-04T11:45:13;17.83;;;13.70;;
51292;SDS011;37377;45.186;9.778;2023-06-04T11:47:44;14.60;;;13.30;;
51292;SDS011;37377;45.186;9.778;2023-06-04T11:50:11;15.50;;;14.07;;
51292;SDS011;37377;45.186;9.778;2023-06-04T11:52:38;13.88;;;12.57;;
51292;SDS011;37377;45.186;9.778;2023-06-04T11:55:09;16.98;;;14.10;;
51292;SDS011;37377;45.186;9.778;2023-06-04T11:57:37;14.40;;;12.90;;
51292;SDS011;37377;45.186;9.778;2023-06-04T12:00:05;14.80;;;13.30;;
51292;SDS011;37377;45.186;9.778;2023-06-04T12:02:37;14.70;;;13.18;;
51292;SDS011;37377;45.186;9.778;2023-06-04T12:05:17;14.52;;;13.00;;
51292;SDS011;37377;45.186;9.778;2023-06-04T12:08:03;15.30;;;13.43;;
51292;SDS011;37377;45.186;9.778;2023-06-04T12:10:40;14.75;;;13.07;;
51292;SDS011;37377;45.186;9.778;2023-06-04T12:13:26;15.00;;;13.65;;
51292;SDS011;37377;45.186;9.778;2023-06-04T12:16:07;14.18;;;12.98;;
51292;SDS011;37377;45.186;9.778;2023-06-04T12:18:34;14.75;;;13.25;;
51292;SDS011;37377;45.186;9.778;2023-06-04T12:21:05;13.77;;;12.48;;
51292;SDS011;37377;45.186;9.778;2023-06-04T12:23:54;14.35;;;13.00;;
51292;SDS011;37377;45.186;9.778;2023-06-04T12:26:44;14.70;;;13.40;;
51292;SDS011;37377;45.186;9.778;2023-06-04T12:29:25;14.57;;;13.15;;
51292;SDS011;37377;45.186;9.778;2023-06-04T12:32:00;12.98;;;11.88;;
51292;SDS011;37377;45.186;9.778;2023-06-04T12:34:42;13.43;;;12.05;;
51292;SDS011;37377;45.186;9.778;2023-06-04T12:37:09;13.50;;;12.18;;
51292;SDS011;37377;45.186;9.778;2023-06-04T12:39:36;12.35;;;11.25;;
51292;SDS011;37377;45.186;9.778;2023-06-04T12:42:06;12.75;;;11.55;;
51292;SDS011;37377;45.186;9.778;2023-06-04T12:45:09;13.77;;;11.15;;
51292;SDS011;37377;45.186;9.778;2023-06-04T12:47:45;13.40;;;11.95;;
51292;SDS011;37377;45.186;9.778;2023-06-04T12:50:14;13.68;;;12.43;;
51292;SDS011;37377;45.186;9.778;2023-06-04T12:52:46;14.77;;;13.38;;
51292;SDS011;37377;45.186;9.778;2023-06-04T12:55:13;16.05;;;13.85;;
51292;SDS011;37377;45.186;9.778;2023-06-04T12:57:40;14.48;;;13.18;;
51292;SDS011;37377;45.186;9.778;2023-06-04T13:00:07;13.52;;;12.25;;
51292;SDS011;37377;45.186;9.778;2023-06-04T13:02:34;13.68;;;12.30;;
51292;SDS011;37377;45.186;9.778;2023-06-04T13:05:02;12.77;;;11.65;;
51292;SDS011;37377;45.186;9.778;2023-06-04T13:07:29;12.18;;;10.98;;
51292;SDS011;37377;45.186;9.778;2023-06-04T13:09:56;13.80;;;11.13;;
51292;SDS011;37377;45.186;9.778;2023-06-04T13:12:22;11.90;;;10.80;;
51292;SDS011;37377;45.186;9.778;2023-06-04T13:14:49;12.20;;;11.10;;
51292;SDS011;37377;45.186;9.778;2023-06-04T13:17:16;13.73;;;12.32;;
51292;SDS011;37377;45.186;9.778;2023-06-04T13:19:49;12.48;;;11.32;;
51292;SDS011;37377;45.186;9.778;2023-06-04T13:22:16;13.50;;;11.70;;
51292;SDS011;37377;45.186;9.778;2023-06-04T13:24:42;13.98;;;12.05;;
51292;SDS011;37377;45.186;9.778;2023-06-04T13:27:09;13.45;;;11.02;;
51292;SDS011;37377;45.186;9.778;2023-06-04T13:29:36;12.45;;;10.80;;
51292;SDS011;37377;45.186;9.778;2023-06-04T13:32:03;12.05;;;10.48;;
51292;SDS011;37377;45.186;9.778;2023-06-04T13:34:31;11.00;;;9.82;;
51292;SDS011;37377;45.186;9.778;2023-06-04T13:36:58;11.88;;;8.38;;
51292;SDS011;37377;45.186;9.778;2023-06-04T13:39:25;10.02;;;9.13;;
51292;SDS011;37377;45.186;9.778;2023-06-04T13:41:52;13.77;;;9.27;;
51292;SDS011;37377;45.186;9.778;2023-06-04T13:44:19;10.77;;;9.68;;
51292;SDS011;37377;45.186;9.778;2023-06-04T13:46:46;22.40;;;9.45;;
51292;SDS011;37377;45.186;9.778;2023-06-04T13:49:13;12.88;;;9.27;;
51292;SDS011;37377;45.186;9.778;2023-06-04T13:51:40;18.83;;;9.52;;
51292;SDS011;37377;45.186;9.778;2023-06-04T13:54:07;14.95;;;9.98;;
51292;SDS011;37377;45.186;9.778;2023-06-04T13:56:36;17.23;;;9.75;;
51292;SDS011;37377;45.186;9.778;2023-06-04T13:59:03;10.25;;;9.27;;
51292;SDS011;37377;45.186;9.778;2023-06-04T14:01:30;15.30;;;9.18;;
51292;SDS011;37377;45.186;9.778;2023-06-04T14:03:57;18.85;;;10.90;;
51292;SDS011;37377;45.186;9.778;2023-06-04T14:06:25;23.38;;;10.30;;
51292;SDS011;37377;45.186;9.778;2023-06-04T14:08:52;15.90;;;8.73;;
51292;SDS011;37377;45.186;9.778;2023-06-04T14:11:19;13.27;;;9.00;;
51292;SDS011;37377;45.186;9.778;2023-06-04T14:13:45;10.95;;;8.95;;
51292;SDS011;37377;45.186;9.778;2023-06-04T14:16:13;14.10;;;9.02;;
51292;SDS011;37377;45.186;9.778;2023-06-04T14:18:40;12.02;;;10.65;;
51292;SDS011;37377;45.186;9.778;2023-06-04T14:21:07;14.02;;;8.73;;
51292;SDS011;37377;45.186;9.778;2023-06-04T14:23:34;11.80;;;8.55;;
51292;SDS011;37377;45.186;9.778;2023-06-04T14:26:01;15.38;;;9.13;;
51292;SDS011;37377;45.186;9.778;2023-06-04T14:28:28;13.00;;;8.45;;
51292;SDS011;37377;45.186;9.778;2023-06-04T14:30:54;9.25;;;8.18;;
51292;SDS011;37377;45.186;9.778;2023-06-04T14:33:21;10.68;;;8.60;;
51292;SDS011;37377;45.186;9.778;2023-06-04T14:35:48;9.52;;;8.10;;
51292;SDS011;37377;45.186;9.778;2023-06-04T14:38:16;8.80;;;7.95;;
51292;SDS011;37377;45.186;9.778;2023-06-04T14:40:43;8.85;;;8.13;;
51292;SDS011;37377;45.186;9.778;2023-06-04T14:43:10;11.50;;;9.15;;
51292;SDS011;37377;45.186;9.778;2023-06-04T14:45:38;10.55;;;9.30;;
51292;SDS011;37377;45.186;9.778;2023-06-04T14:48:06;9.60;;;8.40;;
51292;SDS011;37377;45.186;9.778;2023-06-04T14:50:44;14.52;;;8.45;;
51292;SDS011;37377;45.186;9.778;2023-06-04T14:53:11;13.27;;;8.65;;
51292;SDS011;37377;45.186;9.778;2023-06-04T14:55:38;16.23;;;9.35;;
51292;SDS011;37377;45.186;9.778;2023-06-04T14:58:05;12.63;;;9.23;;
51292;SDS011;37377;45.186;9.778;2023-06-04T15:00:33;13.20;;;9.10;;
51292;SDS011;37377;45.186;9.778;2023-06-04T15:02:59;12.93;;;9.48;;
51292;SDS011;37377;45.186;9.778;2023-06-04T15:05:30;10.10;;;9.10;;
51292;SDS011;37377;45.186;9.778;2023-06-04T15:07:57;13.10;;;9.60;;
51292;SDS011;37377;45.186;9.778;2023-06-04T15:10:24;9.85;;;8.98;;
51292;SDS011;37377;45.186;9.778;2023-06-04T15:12:52;16.43;;;10.90;;
51292;SDS011;37377;45.186;9.778;2023-06-04T15:15:18;20.50;;;11.07;;
51292;SDS011;37377;45.186;9.778;2023-06-04T15:17:45;13.02;;;10.65;;
51292;SDS011;37377;45.186;9.778;2023-06-04T15:20:14;14.95;;;12.23;;
51292;SDS011;37377;45.186;9.778;2023-06-04T15:22:41;16.80;;;13.13;;
51292;SDS011;37377;45.186;9.778;2023-06-04T15:25:08;14.52;;;11.10;;
51292;SDS011;37377;45.186;9.778;2023-06-04T15:27:35;12.40;;;10.48;;
51292;SDS011;37377;45.186;9.778;2023-06-04T15:30:02;11.60;;;10.50;;
51292;SDS011;37377;45.186;9.778;2023-06-04T15:32:29;10.20;;;9.30;;
51292;SDS011;37377;45.186;9.778;2023-06-04T15:34:56;13.75;;;10.20;;
51292;SDS011;37377;45.186;9.778;2023-06-04T15:37:24;10.30;;;9.27;;
51292;SDS011;37377;45.186;9.778;2023-06-04T15:39:51;9.02;;;8.32;;
51292;SDS011;37377;45.186;9.778;2023-06-04T15:42:18;10.38;;;9.38;;
51292;SDS011;37377;45.186;9.778;2023-06-04T15:44:45;7.82;;;7.20;;
51292;SDS011;37377;45.186;9.778;2023-06-04T15:47:12;7.68;;;6.97;;
51292;SDS011;37377;45.186;9.778;2023-06-04T15:49:38;12.15;;;6.88;;
51292;SDS011;37377;45.186;9.778;2023-06-04T15:52:05;9.70;;;6.75;;
51292;SDS011;37377;45.186;9.778;2023-06-04T15:54:33;7.38;;;6.68;;
51292;SDS011;37377;45.186;9.778;2023-06-04T15:57:12;8.02;;;7.30;;